Terminal Aerodrome Forecast
Issued by NWS Grand Forks, ND

Home | Current Version | Previous Version | Text Only | Print | Product List | Glossary On
Versions: 1 2 3 4 5 6 7 8 9 10 11 12
000
FTUS43 KFGF 191730
TAFGFK
TAF
KGFK 191730Z 1918/2018 14011KT P6SM BKN110 OVC200
     FM200900 16010KT P6SM OVC035
     FM201200 16010KT 4SM BR VCSH OVC015
     FM201600 17010KT 1SM BR VCSH OVC008=

USA.gov is the U.S. government's official web portal to all federal, state and local government web resources and services.